sensor_id;sensor_type;location;lat;lon;timestamp;P1;durP1;ratioP1;P2;durP2;ratioP2
25627;SDS011;40915;50.826;4.356;2023-12-14T00:01:44;54.33;;;26.63;;
25627;SDS011;40915;50.826;4.356;2023-12-14T00:04:11;51.60;;;26.47;;
25627;SDS011;40915;50.826;4.356;2023-12-14T00:06:37;62.47;;;34.42;;
25627;SDS011;40915;50.826;4.356;2023-12-14T00:09:02;55.73;;;28.97;;
25627;SDS011;40915;50.826;4.356;2023-12-14T00:11:28;51.37;;;27.33;;
25627;SDS011;40915;50.826;4.356;2023-12-14T00:13:54;53.50;;;26.03;;
25627;SDS011;40915;50.826;4.356;2023-12-14T00:16:20;47.63;;;25.27;;
25627;SDS011;40915;50.826;4.356;2023-12-14T00:18:46;45.03;;;24.27;;
25627;SDS011;40915;50.826;4.356;2023-12-14T00:21:12;48.17;;;23.60;;
25627;SDS011;40915;50.826;4.356;2023-12-14T00:23:37;46.03;;;23.77;;
25627;SDS011;40915;50.826;4.356;2023-12-14T00:26:03;42.73;;;22.20;;
25627;SDS011;40915;50.826;4.356;2023-12-14T00:28:29;42.37;;;22.07;;
25627;SDS011;40915;50.826;4.356;2023-12-14T00:30:55;45.70;;;23.43;;
25627;SDS011;40915;50.826;4.356;2023-12-14T00:33:20;46.43;;;23.03;;
25627;SDS011;40915;50.826;4.356;2023-12-14T00:35:46;45.67;;;23.80;;
25627;SDS011;40915;50.826;4.356;2023-12-14T00:38:11;46.90;;;22.83;;
25627;SDS011;40915;50.826;4.356;2023-12-14T00:40:37;50.37;;;24.60;;
25627;SDS011;40915;50.826;4.356;2023-12-14T00:43:02;48.80;;;23.90;;
25627;SDS011;40915;50.826;4.356;2023-12-14T00:45:28;46.63;;;23.20;;
25627;SDS011;40915;50.826;4.356;2023-12-14T00:47:54;50.07;;;24.93;;
25627;SDS011;40915;50.826;4.356;2023-12-14T00:50:19;48.10;;;23.67;;
25627;SDS011;40915;50.826;4.356;2023-12-14T00:52:45;49.07;;;24.70;;
25627;SDS011;40915;50.826;4.356;2023-12-14T00:55:11;49.90;;;24.70;;
25627;SDS011;40915;50.826;4.356;2023-12-14T00:57:36;47.47;;;24.57;;
25627;SDS011;40915;50.826;4.356;2023-12-14T01:00:02;49.40;;;24.30;;
25627;SDS011;40915;50.826;4.356;2023-12-14T01:02:28;50.33;;;24.73;;
25627;SDS011;40915;50.826;4.356;2023-12-14T01:04:54;48.50;;;24.27;;
25627;SDS011;40915;50.826;4.356;2023-12-14T01:07:20;46.17;;;24.77;;
25627;SDS011;40915;50.826;4.356;2023-12-14T01:09:45;47.37;;;24.83;;
25627;SDS011;40915;50.826;4.356;2023-12-14T01:12:11;46.60;;;24.10;;
25627;SDS011;40915;50.826;4.356;2023-12-14T01:14:37;50.33;;;26.13;;
25627;SDS011;40915;50.826;4.356;2023-12-14T01:17:02;55.47;;;25.97;;
25627;SDS011;40915;50.826;4.356;2023-12-14T01:19:28;55.90;;;26.40;;
25627;SDS011;40915;50.826;4.356;2023-12-14T01:21:54;58.47;;;27.13;;
25627;SDS011;40915;50.826;4.356;2023-12-14T01:24:20;63.23;;;28.20;;
25627;SDS011;40915;50.826;4.356;2023-12-14T01:26:46;58.50;;;27.93;;
25627;SDS011;40915;50.826;4.356;2023-12-14T01:29:11;61.47;;;30.17;;
25627;SDS011;40915;50.826;4.356;2023-12-14T01:31:37;63.87;;;29.10;;
25627;SDS011;40915;50.826;4.356;2023-12-14T01:34:02;62.30;;;29.90;;
25627;SDS011;40915;50.826;4.356;2023-12-14T01:36:28;61.27;;;29.43;;
25627;SDS011;40915;50.826;4.356;2023-12-14T01:38:54;62.90;;;29.87;;
25627;SDS011;40915;50.826;4.356;2023-12-14T01:41:20;62.27;;;29.83;;
25627;SDS011;40915;50.826;4.356;2023-12-14T01:43:46;62.57;;;29.60;;
25627;SDS011;40915;50.826;4.356;2023-12-14T01:46:11;62.93;;;29.73;;
25627;SDS011;40915;50.826;4.356;2023-12-14T01:48:38;66.10;;;30.03;;
25627;SDS011;40915;50.826;4.356;2023-12-14T01:51:04;56.97;;;28.30;;
25627;SDS011;40915;50.826;4.356;2023-12-14T01:53:30;65.23;;;28.97;;
25627;SDS011;40915;50.826;4.356;2023-12-14T01:55:55;61.33;;;28.40;;
25627;SDS011;40915;50.826;4.356;2023-12-14T01:58:21;58.70;;;27.97;;
25627;SDS011;40915;50.826;4.356;2023-12-14T02:00:53;58.20;;;27.80;;
25627;SDS011;40915;50.826;4.356;2023-12-14T02:03:35;56.73;;;27.23;;
25627;SDS011;40915;50.826;4.356;2023-12-14T02:06:01;49.53;;;25.70;;
25627;SDS011;40915;50.826;4.356;2023-12-14T02:08:27;53.70;;;26.10;;
25627;SDS011;40915;50.826;4.356;2023-12-14T02:10:54;52.03;;;26.43;;
25627;SDS011;40915;50.826;4.356;2023-12-14T02:13:19;50.37;;;25.00;;
25627;SDS011;40915;50.826;4.356;2023-12-14T02:15:45;48.30;;;24.93;;
25627;SDS011;40915;50.826;4.356;2023-12-14T02:18:12;51.90;;;24.17;;
25627;SDS011;40915;50.826;4.356;2023-12-14T02:20:37;47.87;;;24.50;;
25627;SDS011;40915;50.826;4.356;2023-12-14T02:23:03;49.57;;;25.57;;
25627;SDS011;40915;50.826;4.356;2023-12-14T02:25:28;45.90;;;24.80;;
25627;SDS011;40915;50.826;4.356;2023-12-14T02:27:54;50.10;;;24.37;;
25627;SDS011;40915;50.826;4.356;2023-12-14T02:30:20;46.40;;;24.63;;
25627;SDS011;40915;50.826;4.356;2023-12-14T02:32:45;43.53;;;24.17;;
25627;SDS011;40915;50.826;4.356;2023-12-14T02:35:11;49.23;;;26.17;;
25627;SDS011;40915;50.826;4.356;2023-12-14T02:37:37;51.93;;;27.47;;
25627;SDS011;40915;50.826;4.356;2023-12-14T02:40:03;52.90;;;28.30;;
25627;SDS011;40915;50.826;4.356;2023-12-14T02:42:29;53.67;;;29.20;;
25627;SDS011;40915;50.826;4.356;2023-12-14T02:44:56;60.67;;;30.67;;
25627;SDS011;40915;50.826;4.356;2023-12-14T02:47:21;57.93;;;29.50;;
25627;SDS011;40915;50.826;4.356;2023-12-14T02:49:47;52.83;;;27.27;;
25627;SDS011;40915;50.826;4.356;2023-12-14T02:52:13;56.90;;;28.80;;
25627;SDS011;40915;50.826;4.356;2023-12-14T02:54:39;54.83;;;29.20;;
25627;SDS011;40915;50.826;4.356;2023-12-14T02:57:05;59.33;;;29.13;;
25627;SDS011;40915;50.826;4.356;2023-12-14T02:59:31;60.87;;;30.10;;
25627;SDS011;40915;50.826;4.356;2023-12-14T03:01:57;54.93;;;29.57;;
25627;SDS011;40915;50.826;4.356;2023-12-14T03:04:23;60.03;;;30.80;;
25627;SDS011;40915;50.826;4.356;2023-12-14T03:06:48;58.00;;;30.17;;
25627;SDS011;40915;50.826;4.356;2023-12-14T03:09:14;61.83;;;29.80;;
25627;SDS011;40915;50.826;4.356;2023-12-14T03:11:39;56.13;;;27.53;;
25627;SDS011;40915;50.826;4.356;2023-12-14T03:14:05;57.47;;;28.93;;
25627;SDS011;40915;50.826;4.356;2023-12-14T03:16:31;58.50;;;29.07;;
25627;SDS011;40915;50.826;4.356;2023-12-14T03:18:56;52.17;;;26.97;;
25627;SDS011;40915;50.826;4.356;2023-12-14T03:21:22;57.40;;;28.70;;
25627;SDS011;40915;50.826;4.356;2023-12-14T03:23:49;54.57;;;26.80;;
25627;SDS011;40915;50.826;4.356;2023-12-14T03:26:15;52.07;;;26.13;;
25627;SDS011;40915;50.826;4.356;2023-12-14T03:28:41;53.70;;;26.60;;
25627;SDS011;40915;50.826;4.356;2023-12-14T03:31:07;53.27;;;26.17;;
25627;SDS011;40915;50.826;4.356;2023-12-14T03:33:35;48.70;;;25.27;;
25627;SDS011;40915;50.826;4.356;2023-12-14T03:36:01;51.57;;;27.47;;
25627;SDS011;40915;50.826;4.356;2023-12-14T03:38:27;53.80;;;26.50;;
25627;SDS011;40915;50.826;4.356;2023-12-14T03:40:53;45.53;;;24.57;;
25627;SDS011;40915;50.826;4.356;2023-12-14T03:43:18;46.07;;;23.90;;
25627;SDS011;40915;50.826;4.356;2023-12-14T03:45:44;39.63;;;21.37;;
25627;SDS011;40915;50.826;4.356;2023-12-14T03:48:10;37.37;;;21.43;;
25627;SDS011;40915;50.826;4.356;2023-12-14T03:50:36;36.97;;;20.03;;
25627;SDS011;40915;50.826;4.356;2023-12-14T03:53:01;36.70;;;20.13;;
25627;SDS011;40915;50.826;4.356;2023-12-14T03:55:27;35.33;;;19.83;;
25627;SDS011;40915;50.826;4.356;2023-12-14T03:57:53;32.27;;;18.87;;
25627;SDS011;40915;50.826;4.356;2023-12-14T04:00:18;31.77;;;17.67;;
25627;SDS011;40915;50.826;4.356;2023-12-14T04:02:44;31.27;;;17.47;;
25627;SDS011;40915;50.826;4.356;2023-12-14T04:05:10;28.87;;;17.13;;
25627;SDS011;40915;50.826;4.356;2023-12-14T04:07:36;31.07;;;18.03;;
25627;SDS011;40915;50.826;4.356;2023-12-14T04:10:05;31.80;;;18.60;;
25627;SDS011;40915;50.826;4.356;2023-12-14T04:12:31;29.40;;;17.77;;
25627;SDS011;40915;50.826;4.356;2023-12-14T04:14:57;30.97;;;18.90;;
25627;SDS011;40915;50.826;4.356;2023-12-14T04:17:23;27.40;;;17.40;;
25627;SDS011;40915;50.826;4.356;2023-12-14T04:19:49;28.10;;;17.30;;
25627;SDS011;40915;50.826;4.356;2023-12-14T04:22:15;28.57;;;18.30;;
25627;SDS011;40915;50.826;4.356;2023-12-14T04:24:40;28.17;;;18.37;;
25627;SDS011;40915;50.826;4.356;2023-12-14T04:27:06;28.47;;;18.50;;
25627;SDS011;40915;50.826;4.356;2023-12-14T04:29:31;26.03;;;18.07;;
25627;SDS011;40915;50.826;4.356;2023-12-14T04:31:57;25.73;;;17.87;;
25627;SDS011;40915;50.826;4.356;2023-12-14T04:34:22;23.67;;;16.80;;
25627;SDS011;40915;50.826;4.356;2023-12-14T04:36:49;26.53;;;17.63;;
25627;SDS011;40915;50.826;4.356;2023-12-14T04:39:15;24.73;;;16.67;;
25627;SDS011;40915;50.826;4.356;2023-12-14T04:41:41;24.37;;;17.40;;
25627;SDS011;40915;50.826;4.356;2023-12-14T04:44:07;25.73;;;17.17;;
25627;SDS011;40915;50.826;4.356;2023-12-14T04:46:35;24.07;;;17.57;;
25627;SDS011;40915;50.826;4.356;2023-12-14T04:49:01;26.13;;;18.30;;
25627;SDS011;40915;50.826;4.356;2023-12-14T04:51:26;28.17;;;19.23;;
25627;SDS011;40915;50.826;4.356;2023-12-14T04:53:52;27.03;;;17.60;;
25627;SDS011;40915;50.826;4.356;2023-12-14T04:56:18;25.43;;;17.70;;
25627;SDS011;40915;50.826;4.356;2023-12-14T04:58:43;26.07;;;18.13;;
25627;SDS011;40915;50.826;4.356;2023-12-14T05:01:09;27.40;;;19.33;;
25627;SDS011;40915;50.826;4.356;2023-12-14T05:03:35;26.90;;;18.63;;
25627;SDS011;40915;50.826;4.356;2023-12-14T05:06:01;26.57;;;19.20;;
25627;SDS011;40915;50.826;4.356;2023-12-14T05:08:26;28.67;;;19.90;;
25627;SDS011;40915;50.826;4.356;2023-12-14T05:10:52;27.97;;;20.07;;
25627;SDS011;40915;50.826;4.356;2023-12-14T05:13:18;28.33;;;19.03;;
25627;SDS011;40915;50.826;4.356;2023-12-14T05:15:43;27.93;;;18.90;;
25627;SDS011;40915;50.826;4.356;2023-12-14T05:18:09;27.83;;;19.70;;
25627;SDS011;40915;50.826;4.356;2023-12-14T05:20:35;26.77;;;19.10;;
25627;SDS011;40915;50.826;4.356;2023-12-14T05:23:01;25.27;;;18.40;;
25627;SDS011;40915;50.826;4.356;2023-12-14T05:25:27;28.00;;;19.10;;
25627;SDS011;40915;50.826;4.356;2023-12-14T05:27:52;27.60;;;18.17;;
25627;SDS011;40915;50.826;4.356;2023-12-14T05:30:18;24.23;;;18.00;;
25627;SDS011;40915;50.826;4.356;2023-12-14T05:32:44;26.03;;;17.07;;
25627;SDS011;40915;50.826;4.356;2023-12-14T05:35:10;26.40;;;18.17;;
25627;SDS011;40915;50.826;4.356;2023-12-14T05:37:38;23.57;;;17.00;;
25627;SDS011;40915;50.826;4.356;2023-12-14T05:40:04;23.03;;;17.93;;
25627;SDS011;40915;50.826;4.356;2023-12-14T05:42:30;24.07;;;17.23;;
25627;SDS011;40915;50.826;4.356;2023-12-14T05:44:56;23.17;;;17.40;;
25627;SDS011;40915;50.826;4.356;2023-12-14T05:47:21;25.93;;;18.60;;
25627;SDS011;40915;50.826;4.356;2023-12-14T05:49:47;24.43;;;17.83;;
25627;SDS011;40915;50.826;4.356;2023-12-14T05:52:13;26.27;;;18.87;;
25627;SDS011;40915;50.826;4.356;2023-12-14T05:54:39;26.03;;;19.20;;
25627;SDS011;40915;50.826;4.356;2023-12-14T05:57:05;25.47;;;17.97;;
25627;SDS011;40915;50.826;4.356;2023-12-14T05:59:31;24.47;;;17.97;;
25627;SDS011;40915;50.826;4.356;2023-12-14T06:01:59;23.27;;;16.77;;
25627;SDS011;40915;50.826;4.356;2023-12-14T06:04:26;24.50;;;17.30;;
25627;SDS011;40915;50.826;4.356;2023-12-14T06:06:52;27.50;;;18.00;;
25627;SDS011;40915;50.826;4.356;2023-12-14T06:09:18;22.07;;;17.60;;
25627;SDS011;40915;50.826;4.356;2023-12-14T06:11:49;26.53;;;17.47;;
25627;SDS011;40915;50.826;4.356;2023-12-14T06:14:16;25.70;;;17.97;;
25627;SDS011;40915;50.826;4.356;2023-12-14T06:16:42;25.13;;;17.13;;
25627;SDS011;40915;50.826;4.356;2023-12-14T06:19:07;21.43;;;16.13;;
25627;SDS011;40915;50.826;4.356;2023-12-14T06:21:33;24.17;;;16.57;;
25627;SDS011;40915;50.826;4.356;2023-12-14T06:23:59;24.17;;;17.13;;
25627;SDS011;40915;50.826;4.356;2023-12-14T06:26:25;23.37;;;16.17;;
25627;SDS011;40915;50.826;4.356;2023-12-14T06:28:51;22.73;;;16.77;;
25627;SDS011;40915;50.826;4.356;2023-12-14T06:31:17;23.53;;;16.70;;
25627;SDS011;40915;50.826;4.356;2023-12-14T06:33:46;25.53;;;16.80;;
25627;SDS011;40915;50.826;4.356;2023-12-14T06:36:16;24.37;;;16.60;;
25627;SDS011;40915;50.826;4.356;2023-12-14T06:38:42;24.33;;;16.10;;
25627;SDS011;40915;50.826;4.356;2023-12-14T06:41:13;25.37;;;16.87;;
25627;SDS011;40915;50.826;4.356;2023-12-14T06:43:43;22.20;;;15.90;;
25627;SDS011;40915;50.826;4.356;2023-12-14T06:46:09;23.17;;;16.20;;
25627;SDS011;40915;50.826;4.356;2023-12-14T06:48:35;23.97;;;16.13;;
25627;SDS011;40915;50.826;4.356;2023-12-14T06:51:00;22.43;;;15.57;;
25627;SDS011;40915;50.826;4.356;2023-12-14T06:53:26;24.03;;;16.23;;
25627;SDS011;40915;50.826;4.356;2023-12-14T06:55:51;21.27;;;15.37;;
25627;SDS011;40915;50.826;4.356;2023-12-14T06:58:17;21.57;;;14.97;;
25627;SDS011;40915;50.826;4.356;2023-12-14T07:00:43;22.57;;;14.20;;
25627;SDS011;40915;50.826;4.356;2023-12-14T07:03:08;20.13;;;13.57;;
25627;SDS011;40915;50.826;4.356;2023-12-14T07:05:34;22.53;;;14.27;;
25627;SDS011;40915;50.826;4.356;2023-12-14T07:08:00;36.47;;;21.77;;
25627;SDS011;40915;50.826;4.356;2023-12-14T07:10:26;20.47;;;13.63;;
25627;SDS011;40915;50.826;4.356;2023-12-14T07:12:51;17.53;;;12.30;;
25627;SDS011;40915;50.826;4.356;2023-12-14T07:15:17;20.77;;;12.67;;
25627;SDS011;40915;50.826;4.356;2023-12-14T07:17:43;20.23;;;13.50;;
25627;SDS011;40915;50.826;4.356;2023-12-14T07:20:09;21.53;;;12.70;;
25627;SDS011;40915;50.826;4.356;2023-12-14T07:22:36;17.90;;;12.13;;
25627;SDS011;40915;50.826;4.356;2023-12-14T07:25:02;20.33;;;12.37;;
25627;SDS011;40915;50.826;4.356;2023-12-14T07:27:28;18.57;;;11.60;;
25627;SDS011;40915;50.826;4.356;2023-12-14T07:29:54;18.53;;;12.13;;
25627;SDS011;40915;50.826;4.356;2023-12-14T07:32:20;17.43;;;11.53;;
25627;SDS011;40915;50.826;4.356;2023-12-14T07:34:46;18.37;;;11.50;;
25627;SDS011;40915;50.826;4.356;2023-12-14T07:37:12;22.50;;;11.77;;
25627;SDS011;40915;50.826;4.356;2023-12-14T07:39:38;18.73;;;12.03;;
25627;SDS011;40915;50.826;4.356;2023-12-14T07:42:04;16.60;;;11.67;;
25627;SDS011;40915;50.826;4.356;2023-12-14T07:44:30;18.43;;;12.03;;
25627;SDS011;40915;50.826;4.356;2023-12-14T07:46:57;18.60;;;12.57;;
25627;SDS011;40915;50.826;4.356;2023-12-14T07:49:24;20.53;;;12.27;;
25627;SDS011;40915;50.826;4.356;2023-12-14T07:51:50;20.38;;;13.85;;
25627;SDS011;40915;50.826;4.356;2023-12-14T07:54:16;17.23;;;11.10;;
25627;SDS011;40915;50.826;4.356;2023-12-14T07:56:43;16.90;;;12.00;;
25627;SDS011;40915;50.826;4.356;2023-12-14T07:59:08;23.30;;;12.20;;
25627;SDS011;40915;50.826;4.356;2023-12-14T08:01:35;16.97;;;10.73;;
25627;SDS011;40915;50.826;4.356;2023-12-14T08:04:00;17.80;;;12.50;;
25627;SDS011;40915;50.826;4.356;2023-12-14T08:06:27;18.30;;;13.18;;
25627;SDS011;40915;50.826;4.356;2023-12-14T08:08:52;20.00;;;11.57;;
25627;SDS011;40915;50.826;4.356;2023-12-14T08:11:18;17.93;;;11.77;;
25627;SDS011;40915;50.826;4.356;2023-12-14T08:13:44;17.13;;;9.73;;
25627;SDS011;40915;50.826;4.356;2023-12-14T08:16:09;18.03;;;10.93;;
25627;SDS011;40915;50.826;4.356;2023-12-14T08:18:38;13.33;;;9.27;;
25627;SDS011;40915;50.826;4.356;2023-12-14T08:21:05;13.97;;;9.23;;
25627;SDS011;40915;50.826;4.356;2023-12-14T08:23:31;13.33;;;8.97;;
25627;SDS011;40915;50.826;4.356;2023-12-14T08:25:57;15.97;;;9.23;;
25627;SDS011;40915;50.826;4.356;2023-12-14T08:28:23;16.20;;;9.83;;
25627;SDS011;40915;50.826;4.356;2023-12-14T08:30:50;13.77;;;8.53;;
25627;SDS011;40915;50.826;4.356;2023-12-14T08:33:16;12.27;;;8.87;;
25627;SDS011;40915;50.826;4.356;2023-12-14T08:35:41;12.27;;;8.40;;
25627;SDS011;40915;50.826;4.356;2023-12-14T08:38:07;16.87;;;8.80;;
25627;SDS011;40915;50.826;4.356;2023-12-14T08:40:33;12.30;;;8.07;;
25627;SDS011;40915;50.826;4.356;2023-12-14T08:42:58;14.02;;;9.13;;
25627;SDS011;40915;50.826;4.356;2023-12-14T08:45:24;10.90;;;7.60;;
25627;SDS011;40915;50.826;4.356;2023-12-14T08:47:50;12.18;;;8.10;;
25627;SDS011;40915;50.826;4.356;2023-12-14T08:50:15;13.60;;;7.77;;
25627;SDS011;40915;50.826;4.356;2023-12-14T08:52:41;11.53;;;7.33;;
25627;SDS011;40915;50.826;4.356;2023-12-14T08:55:07;11.83;;;7.93;;
25627;SDS011;40915;50.826;4.356;2023-12-14T08:57:34;10.20;;;6.80;;
25627;SDS011;40915;50.826;4.356;2023-12-14T08:59:59;12.23;;;7.57;;
25627;SDS011;40915;50.826;4.356;2023-12-14T09:02:26;17.53;;;8.40;;
25627;SDS011;40915;50.826;4.356;2023-12-14T09:04:51;19.17;;;8.97;;
25627;SDS011;40915;50.826;4.356;2023-12-14T09:07:17;16.70;;;9.00;;
25627;SDS011;40915;50.826;4.356;2023-12-14T09:09:43;14.63;;;8.43;;
25627;SDS011;40915;50.826;4.356;2023-12-14T09:12:09;12.90;;;8.40;;
25627;SDS011;40915;50.826;4.356;2023-12-14T09:14:35;13.97;;;8.60;;
25627;SDS011;40915;50.826;4.356;2023-12-14T09:17:01;14.97;;;8.30;;
25627;SDS011;40915;50.826;4.356;2023-12-14T09:19:26;13.90;;;8.37;;
25627;SDS011;40915;50.826;4.356;2023-12-14T09:21:54;15.70;;;8.17;;
25627;SDS011;40915;50.826;4.356;2023-12-14T09:24:20;11.37;;;7.43;;
25627;SDS011;40915;50.826;4.356;2023-12-14T09:26:47;14.83;;;8.07;;
25627;SDS011;40915;50.826;4.356;2023-12-14T09:29:13;11.97;;;8.00;;
25627;SDS011;40915;50.826;4.356;2023-12-14T09:31:41;19.37;;;10.30;;
25627;SDS011;40915;50.826;4.356;2023-12-14T09:34:07;13.53;;;8.20;;
25627;SDS011;40915;50.826;4.356;2023-12-14T09:36:34;12.37;;;7.13;;
25627;SDS011;40915;50.826;4.356;2023-12-14T09:39:00;11.30;;;7.00;;
25627;SDS011;40915;50.826;4.356;2023-12-14T09:41:26;13.97;;;7.37;;
25627;SDS011;40915;50.826;4.356;2023-12-14T09:43:52;13.00;;;6.97;;
25627;SDS011;40915;50.826;4.356;2023-12-14T09:46:18;13.70;;;7.00;;
25627;SDS011;40915;50.826;4.356;2023-12-14T09:48:46;10.70;;;7.07;;
25627;SDS011;40915;50.826;4.356;2023-12-14T09:51:14;9.73;;;6.60;;
25627;SDS011;40915;50.826;4.356;2023-12-14T09:53:41;10.80;;;6.37;;
25627;SDS011;40915;50.826;4.356;2023-12-14T09:56:07;11.30;;;7.13;;
25627;SDS011;40915;50.826;4.356;2023-12-14T09:58:32;10.80;;;6.53;;
25627;SDS011;40915;50.826;4.356;2023-12-14T10:00:59;13.23;;;7.78;;
25627;SDS011;40915;50.826;4.356;2023-12-14T10:03:26;11.70;;;6.90;;
25627;SDS011;40915;50.826;4.356;2023-12-14T10:05:54;13.73;;;7.17;;
25627;SDS011;40915;50.826;4.356;2023-12-14T10:08:21;13.77;;;6.37;;
25627;SDS011;40915;50.826;4.356;2023-12-14T10:10:47;14.50;;;7.30;;
25627;SDS011;40915;50.826;4.356;2023-12-14T10:13:16;11.50;;;6.07;;
25627;SDS011;40915;50.826;4.356;2023-12-14T10:15:46;10.03;;;5.50;;
25627;SDS011;40915;50.826;4.356;2023-12-14T10:18:22;9.27;;;5.60;;
25627;SDS011;40915;50.826;4.356;2023-12-14T10:20:51;10.70;;;6.20;;
25627;SDS011;40915;50.826;4.356;2023-12-14T10:23:18;9.80;;;5.70;;
25627;SDS011;40915;50.826;4.356;2023-12-14T10:25:44;13.13;;;5.40;;
25627;SDS011;40915;50.826;4.356;2023-12-14T10:28:14;11.13;;;5.97;;
25627;SDS011;40915;50.826;4.356;2023-12-14T10:30:40;11.67;;;6.07;;
25627;SDS011;40915;50.826;4.356;2023-12-14T10:33:06;11.67;;;5.17;;
25627;SDS011;40915;50.826;4.356;2023-12-14T10:35:32;9.97;;;5.27;;
25627;SDS011;40915;50.826;4.356;2023-12-14T10:37:58;11.93;;;5.67;;
25627;SDS011;40915;50.826;4.356;2023-12-14T10:40:30;10.23;;;4.63;;
25627;SDS011;40915;50.826;4.356;2023-12-14T10:42:58;14.87;;;4.87;;
25627;SDS011;40915;50.826;4.356;2023-12-14T10:45:29;13.03;;;5.30;;
25627;SDS011;40915;50.826;4.356;2023-12-14T10:47:58;11.13;;;4.47;;
25627;SDS011;40915;50.826;4.356;2023-12-14T10:50:26;12.60;;;5.20;;
25627;SDS011;40915;50.826;4.356;2023-12-14T10:52:56;11.87;;;5.80;;
25627;SDS011;40915;50.826;4.356;2023-12-14T10:58:08;10.07;;;4.73;;
25627;SDS011;40915;50.826;4.356;2023-12-14T11:00:35;7.83;;;4.63;;
25627;SDS011;40915;50.826;4.356;2023-12-14T11:03:03;11.27;;;5.30;;
25627;SDS011;40915;50.826;4.356;2023-12-14T11:05:33;10.17;;;5.67;;
25627;SDS011;40915;50.826;4.356;2023-12-14T11:08:00;14.10;;;5.60;;
25627;SDS011;40915;50.826;4.356;2023-12-14T11:10:38;14.53;;;6.70;;
25627;SDS011;40915;50.826;4.356;2023-12-14T11:13:08;12.07;;;5.63;;
25627;SDS011;40915;50.826;4.356;2023-12-14T11:15:37;9.40;;;5.30;;
25627;SDS011;40915;50.826;4.356;2023-12-14T11:23:10;13.57;;;6.13;;
25627;SDS011;40915;50.826;4.356;2023-12-14T11:25:44;11.47;;;6.87;;
25627;SDS011;40915;50.826;4.356;2023-12-14T11:28:14;13.37;;;6.10;;
25627;SDS011;40915;50.826;4.356;2023-12-14T11:30:40;9.05;;;5.53;;
25627;SDS011;40915;50.826;4.356;2023-12-14T11:33:08;9.43;;;5.17;;
25627;SDS011;40915;50.826;4.356;2023-12-14T11:35:35;11.53;;;5.23;;
25627;SDS011;40915;50.826;4.356;2023-12-14T11:38:01;10.07;;;5.40;;
25627;SDS011;40915;50.826;4.356;2023-12-14T11:40:30;9.47;;;6.13;;
25627;SDS011;40915;50.826;4.356;2023-12-14T11:42:59;12.88;;;6.68;;
25627;SDS011;40915;50.826;4.356;2023-12-14T11:45:25;9.77;;;5.70;;
25627;SDS011;40915;50.826;4.356;2023-12-14T11:47:51;13.47;;;6.03;;
25627;SDS011;40915;50.826;4.356;2023-12-14T11:50:17;14.43;;;7.63;;
25627;SDS011;40915;50.826;4.356;2023-12-14T11:52:43;19.90;;;7.73;;
25627;SDS011;40915;50.826;4.356;2023-12-14T11:55:12;11.47;;;6.07;;
25627;SDS011;40915;50.826;4.356;2023-12-14T11:57:39;14.50;;;6.80;;
25627;SDS011;40915;50.826;4.356;2023-12-14T12:00:10;17.90;;;7.10;;
25627;SDS011;40915;50.826;4.356;2023-12-14T12:02:37;15.43;;;6.43;;
25627;SDS011;40915;50.826;4.356;2023-12-14T12:05:02;14.90;;;6.47;;
25627;SDS011;40915;50.826;4.356;2023-12-14T12:07:28;13.47;;;6.43;;
25627;SDS011;40915;50.826;4.356;2023-12-14T12:09:54;16.03;;;6.87;;
25627;SDS011;40915;50.826;4.356;2023-12-14T12:12:20;15.00;;;7.03;;
25627;SDS011;40915;50.826;4.356;2023-12-14T12:14:46;14.57;;;7.37;;
25627;SDS011;40915;50.826;4.356;2023-12-14T12:17:14;13.43;;;7.97;;
25627;SDS011;40915;50.826;4.356;2023-12-14T12:19:40;14.33;;;8.43;;
25627;SDS011;40915;50.826;4.356;2023-12-14T12:22:07;15.17;;;7.23;;
25627;SDS011;40915;50.826;4.356;2023-12-14T12:24:33;14.33;;;8.03;;
25627;SDS011;40915;50.826;4.356;2023-12-14T12:26:59;14.70;;;7.77;;
25627;SDS011;40915;50.826;4.356;2023-12-14T12:29:25;15.47;;;7.60;;
25627;SDS011;40915;50.826;4.356;2023-12-14T12:31:51;14.77;;;7.40;;
25627;SDS011;40915;50.826;4.356;2023-12-14T12:34:17;20.80;;;8.00;;
25627;SDS011;40915;50.826;4.356;2023-12-14T12:36:43;18.67;;;6.90;;
25627;SDS011;40915;50.826;4.356;2023-12-14T12:39:09;15.87;;;6.73;;
25627;SDS011;40915;50.826;4.356;2023-12-14T12:41:35;12.57;;;5.67;;
25627;SDS011;40915;50.826;4.356;2023-12-14T12:44:04;8.43;;;4.23;;
25627;SDS011;40915;50.826;4.356;2023-12-14T12:46:37;9.60;;;4.67;;
25627;SDS011;40915;50.826;4.356;2023-12-14T12:49:04;11.30;;;6.07;;
25627;SDS011;40915;50.826;4.356;2023-12-14T12:51:30;12.83;;;5.63;;
25627;SDS011;40915;50.826;4.356;2023-12-14T12:53:57;12.83;;;6.27;;
25627;SDS011;40915;50.826;4.356;2023-12-14T12:56:25;18.97;;;7.40;;
25627;SDS011;40915;50.826;4.356;2023-12-14T12:58:51;14.73;;;6.27;;
25627;SDS011;40915;50.826;4.356;2023-12-14T13:01:19;15.83;;;7.27;;
25627;SDS011;40915;50.826;4.356;2023-12-14T13:03:47;17.63;;;6.47;;
25627;SDS011;40915;50.826;4.356;2023-12-14T13:06:17;11.67;;;6.27;;
25627;SDS011;40915;50.826;4.356;2023-12-14T13:08:43;12.83;;;6.67;;
25627;SDS011;40915;50.826;4.356;2023-12-14T13:11:09;10.67;;;6.30;;
25627;SDS011;40915;50.826;4.356;2023-12-14T13:13:34;10.67;;;5.80;;
25627;SDS011;40915;50.826;4.356;2023-12-14T13:16:00;15.20;;;6.70;;
25627;SDS011;40915;50.826;4.356;2023-12-14T13:18:25;14.00;;;6.03;;
25627;SDS011;40915;50.826;4.356;2023-12-14T13:20:51;13.60;;;6.73;;
25627;SDS011;40915;50.826;4.356;2023-12-14T13:23:17;13.10;;;7.03;;
25627;SDS011;40915;50.826;4.356;2023-12-14T13:25:42;12.10;;;5.97;;
25627;SDS011;40915;50.826;4.356;2023-12-14T13:28:10;12.03;;;6.30;;
25627;SDS011;40915;50.826;4.356;2023-12-14T13:30:36;14.97;;;6.33;;
25627;SDS011;40915;50.826;4.356;2023-12-14T13:33:01;9.73;;;6.33;;
25627;SDS011;40915;50.826;4.356;2023-12-14T13:35:29;11.47;;;6.33;;
25627;SDS011;40915;50.826;4.356;2023-12-14T13:37:54;14.60;;;6.43;;
25627;SDS011;40915;50.826;4.356;2023-12-14T13:40:20;16.73;;;6.87;;
25627;SDS011;40915;50.826;4.356;2023-12-14T13:42:46;13.50;;;6.33;;
25627;SDS011;40915;50.826;4.356;2023-12-14T13:45:12;11.73;;;7.33;;
25627;SDS011;40915;50.826;4.356;2023-12-14T13:47:38;16.90;;;7.07;;
25627;SDS011;40915;50.826;4.356;2023-12-14T13:50:03;16.87;;;6.90;;
25627;SDS011;40915;50.826;4.356;2023-12-14T13:52:30;14.73;;;6.53;;
25627;SDS011;40915;50.826;4.356;2023-12-14T13:54:55;11.13;;;5.73;;
25627;SDS011;40915;50.826;4.356;2023-12-14T13:57:22;12.93;;;6.73;;
25627;SDS011;40915;50.826;4.356;2023-12-14T13:59:47;10.87;;;7.10;;
25627;SDS011;40915;50.826;4.356;2023-12-14T14:02:13;12.67;;;6.50;;
25627;SDS011;40915;50.826;4.356;2023-12-14T14:04:38;15.83;;;6.43;;
25627;SDS011;40915;50.826;4.356;2023-12-14T14:07:05;9.53;;;5.73;;
25627;SDS011;40915;50.826;4.356;2023-12-14T14:09:30;13.90;;;6.50;;
25627;SDS011;40915;50.826;4.356;2023-12-14T14:11:57;11.73;;;6.67;;
25627;SDS011;40915;50.826;4.356;2023-12-14T14:14:23;12.43;;;6.83;;
25627;SDS011;40915;50.826;4.356;2023-12-14T14:16:49;14.77;;;6.53;;
25627;SDS011;40915;50.826;4.356;2023-12-14T14:19:15;14.27;;;6.50;;
25627;SDS011;40915;50.826;4.356;2023-12-14T14:21:41;9.73;;;6.50;;
25627;SDS011;40915;50.826;4.356;2023-12-14T14:24:06;12.97;;;6.33;;
25627;SDS011;40915;50.826;4.356;2023-12-14T14:26:32;12.33;;;5.90;;
25627;SDS011;40915;50.826;4.356;2023-12-14T14:28:58;12.20;;;6.07;;
25627;SDS011;40915;50.826;4.356;2023-12-14T14:31:26;11.87;;;6.47;;